Time;durP1;ratioP1;P1;durP2;ratioP2;P2;SDS_P1;SDS_P2;PMS_P1;PMS_P2;Temp;Humidity;BMP_temperature;BMP_pressure;BME280_temperature;BME280_humidity;BME280_pressure;Samples;Min_cycle;Max_cycle;Signal;HPM_P1;HPM_P2
2023/08/11 00:02:36;;;;;;;4.97;2.37;;;;;;;;;;6222848;28;20206;-67
2023/08/11 00:05:40;;;;;;;3.47;2.80;;;;;;;;;;6237772;28;20192;-67
2023/08/11 00:08:41;;;;;;;6.37;3.97;;;;;;;;;;6223334;28;20199;-67
2023/08/11 00:11:42;;;;;;;3.47;3.00;;;;;;;;;;6222209;28;20255;-67
2023/08/11 00:14:43;;;;;;;3.33;2.50;;;;;;;;;;6240137;28;20310;-67
2023/08/11 00:17:44;;;;;;;3.27;2.60;;;;;;;;;;6224872;28;20226;-67
2023/08/11 00:20:46;;;;;;;3.30;3.00;;;;;;;;;;6215088;28;20230;-67
2023/08/11 00:23:47;;;;;;;3.83;2.40;;;;;;;;;;6213006;28;20302;-67
2023/08/11 00:26:48;;;;;;;3.53;2.70;;;;;;;;;;6215635;28;20181;-67
2023/08/11 00:29:49;;;;;;;2.40;2.20;;;;;;;;;;6222379;28;20202;-67
2023/08/11 00:32:50;;;;;;;2.60;2.40;;;;;;;;;;6222169;28;20195;-67
2023/08/11 00:35:51;;;;;;;3.00;2.70;;;;;;;;;;6217471;28;20189;-67
2023/08/11 00:38:52;;;;;;;3.00;2.57;;;;;;;;;;6223733;28;20249;-67
2023/08/11 00:41:53;;;;;;;2.90;2.43;;;;;;;;;;6223127;28;20221;-67
2023/08/11 00:44:58;;;;;;;3.60;2.57;;;;;;;;;;6216902;28;20188;-67
2023/08/11 00:47:59;;;;;;;3.97;3.00;;;;;;;;;;6222102;28;20284;-67
2023/08/11 00:51:00;;;;;;;3.03;2.27;;;;;;;;;;6233560;28;20191;-67
2023/08/11 00:54:01;;;;;;;4.67;2.50;;;;;;;;;;6230679;28;20194;-67
2023/08/11 00:57:03;;;;;;;4.30;2.40;;;;;;;;;;6215923;28;20203;-67
2023/08/11 01:00:11;;;;;;;4.60;2.40;;;;;;;;;;6218327;28;20219;-67
2023/08/11 01:03:13;;;;;;;4.63;2.83;;;;;;;;;;6207248;28;20235;-67
2023/08/11 01:06:19;;;;;;;3.43;2.50;;;;;;;;;;6218653;28;20191;-67
2023/08/11 01:09:29;;;;;;;3.63;2.40;;;;;;;;;;6221965;28;20191;-67
2023/08/11 01:12:41;;;;;;;3.83;2.53;;;;;;;;;;6233249;28;20189;-67
2023/08/11 01:15:46;;;;;;;4.20;3.30;;;;;;;;;;6215811;28;20296;-67
2023/08/11 01:18:48;;;;;;;2.73;2.50;;;;;;;;;;6226987;28;20216;-67
2023/08/11 01:21:49;;;;;;;4.80;2.77;;;;;;;;;;6216275;28;20192;-67
2023/08/11 01:24:51;;;;;;;4.77;2.87;;;;;;;;;;6238164;28;20198;-67
2023/08/11 01:27:59;;;;;;;3.33;2.73;;;;;;;;;;6224889;28;20180;-67
2023/08/11 01:31:00;;;;;;;5.00;2.87;;;;;;;;;;6226405;28;20188;-67
2023/08/11 01:34:01;;;;;;;2.70;2.50;;;;;;;;;;6223391;28;20195;-67
2023/08/11 01:37:03;;;;;;;3.87;2.80;;;;;;;;;;6218505;28;20197;-67
2023/08/11 01:40:10;;;;;;;3.40;3.03;;;;;;;;;;6233365;28;20243;-67
2023/08/11 01:43:12;;;;;;;3.13;2.83;;;;;;;;;;6212863;28;20251;-67
2023/08/11 01:46:13;;;;;;;4.43;2.97;;;;;;;;;;6232820;28;20195;-67
2023/08/11 01:49:15;;;;;;;3.90;2.73;;;;;;;;;;6238887;28;20198;-67
2023/08/11 01:52:16;;;;;;;5.10;3.33;;;;;;;;;;6229777;28;20188;-67
2023/08/11 01:55:18;;;;;;;3.23;2.93;;;;;;;;;;6216889;28;20231;-67
2023/08/11 01:58:19;;;;;;;3.83;2.63;;;;;;;;;;6234560;28;20204;-67
2023/08/11 02:01:20;;;;;;;3.00;2.70;;;;;;;;;;6224897;28;20211;-67
2023/08/11 02:04:21;;;;;;;7.70;3.00;;;;;;;;;;6222898;28;20195;-67
2023/08/11 02:07:22;;;;;;;3.40;2.90;;;;;;;;;;6223408;28;20194;-67
2023/08/11 02:10:23;;;;;;;3.13;2.77;;;;;;;;;;6233623;28;20201;-67
2023/08/11 02:13:24;;;;;;;3.47;3.13;;;;;;;;;;6226782;28;20204;-67
2023/08/11 02:16:25;;;;;;;5.10;2.97;;;;;;;;;;6241723;28;20191;-67
2023/08/11 02:19:26;;;;;;;3.10;2.83;;;;;;;;;;6224005;28;20249;-67
2023/08/11 02:22:28;;;;;;;4.30;2.77;;;;;;;;;;6243528;28;20191;-67
2023/08/11 02:25:29;;;;;;;3.37;2.60;;;;;;;;;;6236675;28;20195;-67
2023/08/11 02:28:30;;;;;;;5.77;3.50;;;;;;;;;;6215166;28;20215;-67
2023/08/11 02:31:32;;;;;;;3.10;2.80;;;;;;;;;;6222310;28;20199;-67
2023/08/11 02:34:34;;;;;;;3.53;3.17;;;;;;;;;;6218243;28;20199;-67
2023/08/11 02:37:35;;;;;;;3.80;3.27;;;;;;;;;;6239230;28;20193;-67
2023/08/11 02:40:36;;;;;;;4.27;2.73;;;;;;;;;;6224158;28;20291;-67
2023/08/11 02:43:37;;;;;;;3.67;2.70;;;;;;;;;;6226627;28;20193;-67
2023/08/11 02:46:38;;;;;;;3.47;3.17;;;;;;;;;;6221944;28;20210;-67
2023/08/11 02:49:39;;;;;;;3.33;2.73;;;;;;;;;;6221777;28;20274;-67
2023/08/11 02:52:40;;;;;;;4.27;3.30;;;;;;;;;;6239523;28;20196;-67
2023/08/11 02:55:41;;;;;;;5.50;3.13;;;;;;;;;;6225584;28;20285;-67
2023/08/11 02:58:43;;;;;;;4.60;2.93;;;;;;;;;;6201320;28;20223;-67
2023/08/11 03:01:44;;;;;;;5.07;3.13;;;;;;;;;;6223921;28;20184;-67
2023/08/11 03:04:45;;;;;;;3.90;3.13;;;;;;;;;;6234647;28;20215;-67
2023/08/11 03:07:46;;;;;;;4.37;3.27;;;;;;;;;;6217279;28;20199;-67
2023/08/11 03:10:47;;;;;;;3.90;2.67;;;;;;;;;;6234622;28;20197;-67
2023/08/11 03:13:48;;;;;;;4.67;3.00;;;;;;;;;;6223673;28;20198;-67
2023/08/11 03:16:49;;;;;;;6.17;3.17;;;;;;;;;;6241785;28;20195;-67
2023/08/11 03:19:51;;;;;;;4.00;3.43;;;;;;;;;;6218948;28;20221;-67
2023/08/11 03:22:52;;;;;;;3.80;3.20;;;;;;;;;;6235991;28;20283;-67
2023/08/11 03:25:53;;;;;;;3.87;3.43;;;;;;;;;;6214400;28;20226;-67
2023/08/11 03:28:54;;;;;;;3.33;3.03;;;;;;;;;;6224211;28;20195;-67
2023/08/11 03:31:55;;;;;;;4.27;2.97;;;;;;;;;;6224727;28;20207;-67
2023/08/11 03:34:56;;;;;;;3.53;3.23;;;;;;;;;;6224665;28;20198;-67
2023/08/11 03:37:57;;;;;;;5.97;3.33;;;;;;;;;;6238229;28;20300;-67
2023/08/11 03:40:58;;;;;;;4.73;3.43;;;;;;;;;;6221621;28;20265;-67
2023/08/11 03:43:59;;;;;;;4.57;2.80;;;;;;;;;;6224083;28;20194;-67
2023/08/11 03:47:00;;;;;;;5.53;2.97;;;;;;;;;;6224665;28;20194;-67
2023/08/11 03:50:02;;;;;;;4.37;3.03;;;;;;;;;;6223147;28;20198;-67
2023/08/11 03:53:03;;;;;;;4.10;3.67;;;;;;;;;;6240357;28;20225;-67
2023/08/11 03:56:07;;;;;;;4.17;3.00;;;;;;;;;;6238534;28;20199;-67
2023/08/11 03:59:08;;;;;;;3.33;3.03;;;;;;;;;;6201363;28;20231;-67
2023/08/11 04:02:09;;;;;;;3.97;3.10;;;;;;;;;;6217817;28;20201;-67
2023/08/11 04:05:10;;;;;;;3.83;3.30;;;;;;;;;;6236490;28;20191;-67
2023/08/11 04:08:11;;;;;;;5.67;3.27;;;;;;;;;;6231261;28;20212;-67
2023/08/11 04:11:12;;;;;;;5.17;2.97;;;;;;;;;;6235893;28;20200;-67
2023/08/11 04:14:13;;;;;;;6.33;3.80;;;;;;;;;;6223685;28;20195;-67
2023/08/11 04:17:16;;;;;;;3.60;3.30;;;;;;;;;;6239164;28;20277;-67
2023/08/11 04:20:17;;;;;;;5.43;3.63;;;;;;;;;;6218317;28;20238;-67
2023/08/11 04:23:18;;;;;;;4.20;3.30;;;;;;;;;;6237697;28;20195;-67
2023/08/11 04:26:19;;;;;;;3.67;3.37;;;;;;;;;;6216913;28;20191;-67
2023/08/11 04:29:20;;;;;;;3.37;3.03;;;;;;;;;;6199849;28;20222;-67
2023/08/11 04:32:21;;;;;;;4.50;3.53;;;;;;;;;;6219392;28;20195;-67
2023/08/11 04:35:22;;;;;;;5.13;3.17;;;;;;;;;;6221065;28;20202;-67
2023/08/11 04:38:23;;;;;;;3.63;3.20;;;;;;;;;;6231557;28;20304;-67
2023/08/11 04:41:24;;;;;;;3.97;3.33;;;;;;;;;;6239366;28;20222;-67
2023/08/11 04:44:25;;;;;;;5.37;3.67;;;;;;;;;;6220068;28;20237;-67
2023/08/11 04:47:26;;;;;;;4.67;3.70;;;;;;;;;;6215678;28;20283;-67
2023/08/11 04:50:27;;;;;;;3.57;3.17;;;;;;;;;;6232514;28;20194;-67
2023/08/11 04:53:29;;;;;;;3.63;2.90;;;;;;;;;;6215010;28;20204;-67
2023/08/11 04:56:30;;;;;;;3.30;3.07;;;;;;;;;;6214862;28;20187;-67
2023/08/11 04:59:31;;;;;;;4.47;3.33;;;;;;;;;;6217284;28;20222;-67
2023/08/11 05:02:32;;;;;;;7.10;3.60;;;;;;;;;;6229569;28;20188;-67
2023/08/11 05:05:34;;;;;;;3.50;3.20;;;;;;;;;;6210024;28;20188;-67
2023/08/11 05:08:36;;;;;;;7.40;3.80;;;;;;;;;;6203128;28;20295;-67
2023/08/11 05:11:37;;;;;;;6.20;3.13;;;;;;;;;;6208256;28;20226;-67
2023/08/11 05:14:38;;;;;;;4.43;3.40;;;;;;;;;;6222358;28;20245;-67
2023/08/11 05:17:39;;;;;;;4.27;3.30;;;;;;;;;;6217375;28;20188;-67
2023/08/11 05:20:40;;;;;;;4.50;3.80;;;;;;;;;;6237474;28;20273;-67
2023/08/11 05:23:42;;;;;;;3.47;3.17;;;;;;;;;;6220422;28;20190;-67
2023/08/11 05:26:43;;;;;;;4.00;3.40;;;;;;;;;;6236702;28;20255;-67
2023/08/11 05:29:46;;;;;;;4.17;3.67;;;;;;;;;;6233806;28;20195;-71
2023/08/11 05:32:47;;;;;;;3.87;3.13;;;;;;;;;;6214738;28;20206;-67
2023/08/11 05:35:48;;;;;;;5.13;3.60;;;;;;;;;;6227779;28;20199;-68
2023/08/11 05:38:49;;;;;;;3.97;3.50;;;;;;;;;;6209152;28;20249;-67
2023/08/11 05:41:50;;;;;;;3.77;3.43;;;;;;;;;;6228561;28;20534;-67
2023/08/11 05:44:51;;;;;;;6.20;3.67;;;;;;;;;;6237537;28;20201;-67
2023/08/11 05:47:52;;;;;;;5.30;3.53;;;;;;;;;;6229075;28;20243;-67
2023/08/11 05:50:53;;;;;;;4.10;3.70;;;;;;;;;;6216833;28;20200;-67
2023/08/11 05:53:54;;;;;;;3.50;3.20;;;;;;;;;;6227005;28;20203;-67
2023/08/11 05:56:55;;;;;;;5.63;3.43;;;;;;;;;;6210918;28;20268;-67
2023/08/11 05:59:57;;;;;;;4.63;3.90;;;;;;;;;;6227172;28;20214;-67
2023/08/11 06:02:58;;;;;;;5.00;3.43;;;;;;;;;;6226579;28;20197;-67
2023/08/11 06:06:00;;;;;;;4.47;3.80;;;;;;;;;;6228136;28;20193;-68
2023/08/11 06:09:01;;;;;;;5.40;4.07;;;;;;;;;;6225020;28;20329;-67
2023/08/11 06:12:02;;;;;;;3.53;3.20;;;;;;;;;;6232837;28;20191;-68
2023/08/11 06:15:04;;;;;;;5.83;4.03;;;;;;;;;;6215848;28;20200;-67
2023/08/11 06:18:05;;;;;;;4.83;3.70;;;;;;;;;;6221478;28;20245;-67
2023/08/11 06:21:06;;;;;;;5.00;3.97;;;;;;;;;;6213580;28;20215;-67
2023/08/11 06:24:07;;;;;;;4.00;3.67;;;;;;;;;;6223992;28;20214;-67
2023/08/11 06:27:09;;;;;;;4.37;3.33;;;;;;;;;;6236032;28;20334;-67
2023/08/11 06:30:10;;;;;;;4.60;3.60;;;;;;;;;;6226985;28;20230;-67
2023/08/11 06:33:11;;;;;;;5.33;3.70;;;;;;;;;;6241697;28;20196;-66
2023/08/11 06:36:13;;;;;;;5.60;3.60;;;;;;;;;;6224522;28;20318;-67
2023/08/11 06:39:14;;;;;;;3.50;3.20;;;;;;;;;;6238987;28;20277;-65
2023/08/11 06:42:15;;;;;;;4.47;3.97;;;;;;;;;;6237554;28;20326;-69
2023/08/11 06:45:17;;;;;;;4.70;3.80;;;;;;;;;;6220416;28;20200;-67
2023/08/11 06:48:18;;;;;;;6.33;3.70;;;;;;;;;;6232992;28;20198;-70
2023/08/11 06:51:19;;;;;;;5.20;3.63;;;;;;;;;;6226224;28;20219;-66
2023/08/11 06:54:20;;;;;;;4.30;3.90;;;;;;;;;;6223032;28;20281;-65
2023/08/11 06:57:21;;;;;;;3.83;3.47;;;;;;;;;;6239415;28;20241;-66
2023/08/11 07:00:22;;;;;;;5.13;3.40;;;;;;;;;;6233593;28;20221;-66
2023/08/11 07:03:23;;;;;;;6.67;3.50;;;;;;;;;;6231722;28;20195;-65
2023/08/11 07:06:24;;;;;;;5.50;3.87;;;;;;;;;;6233043;28;20194;-66
2023/08/11 07:09:25;;;;;;;4.37;3.80;;;;;;;;;;6225103;28;20245;-66
2023/08/11 07:12:26;;;;;;;5.50;3.80;;;;;;;;;;6230542;28;20204;-65
2023/08/11 07:15:27;;;;;;;6.67;4.03;;;;;;;;;;6219941;28;20202;-66
2023/08/11 07:18:29;;;;;;;5.33;3.87;;;;;;;;;;6202676;28;20230;-64
2023/08/11 07:21:30;;;;;;;5.10;3.77;;;;;;;;;;6204904;28;20222;-64
2023/08/11 07:24:31;;;;;;;6.00;3.23;;;;;;;;;;6194027;28;20188;-64
2023/08/11 07:27:32;;;;;;;4.10;3.47;;;;;;;;;;6204361;28;20193;-64
2023/08/11 07:30:33;;;;;;;4.57;3.07;;;;;;;;;;6187075;28;20276;-64
2023/08/11 07:33:34;;;;;;;3.70;3.00;;;;;;;;;;6210393;28;20187;-65
2023/08/11 07:36:36;;;;;;;4.80;3.03;;;;;;;;;;6197517;28;20247;-64
2023/08/11 07:39:37;;;;;;;4.60;3.63;;;;;;;;;;6199188;28;20344;-64
2023/08/11 07:42:38;;;;;;;4.30;3.13;;;;;;;;;;6189702;28;20196;-64
2023/08/11 07:45:39;;;;;;;3.47;3.17;;;;;;;;;;6189602;28;20266;-65
2023/08/11 07:48:40;;;;;;;5.47;3.20;;;;;;;;;;6196898;28;20198;-63
2023/08/11 07:51:41;;;;;;;4.63;3.70;;;;;;;;;;6178150;28;20197;-62
2023/08/11 07:54:42;;;;;;;4.90;3.50;;;;;;;;;;6192239;28;20280;-63
2023/08/11 07:57:43;;;;;;;4.07;2.87;;;;;;;;;;6182889;28;20203;-62
2023/08/11 08:00:44;;;;;;;3.93;3.60;;;;;;;;;;6198858;28;20215;-62
2023/08/11 08:06:49;;;;;;;4.20;2.80;;;;;;;;;;6161971;28;20225;-68
2023/08/11 08:09:50;;;;;;;4.40;3.30;;;;;;;;;;6174689;28;20188;-67
2023/08/11 08:12:52;;;;;;;2.90;2.70;;;;;;;;;;6167765;28;20212;-68
2023/08/11 08:15:53;;;;;;;3.33;2.80;;;;;;;;;;6159169;28;20197;-68
2023/08/11 08:18:54;;;;;;;3.67;3.37;;;;;;;;;;6169293;28;20215;-68
2023/08/11 08:21:55;;;;;;;3.83;2.90;;;;;;;;;;6160549;28;20189;-68
2023/08/11 08:24:56;;;;;;;3.30;2.83;;;;;;;;;;6163677;28;20193;-68
2023/08/11 08:27:57;;;;;;;3.23;2.60;;;;;;;;;;6172670;28;20272;-69
2023/08/11 08:30:58;;;;;;;3.03;2.83;;;;;;;;;;6169427;28;20215;-67
2023/08/11 08:34:10;;;;;;;2.90;2.47;;;;;;;;;;6168853;28;20192;-66
2023/08/11 08:37:12;;;;;;;2.70;2.50;;;;;;;;;;6157398;28;20194;-71
2023/08/11 08:40:13;;;;;;;2.97;2.60;;;;;;;;;;6171908;28;20221;-68
2023/08/11 08:43:16;;;;;;;3.17;2.50;;;;;;;;;;6163152;28;20200;-74
2023/08/11 08:46:20;;;;;;;3.57;2.40;;;;;;;;;;6157331;28;20267;-75
2023/08/11 08:49:25;;;;;;;4.00;2.43;;;;;;;;;;6187163;28;20201;-73
2023/08/11 08:52:27;;;;;;;2.80;2.30;;;;;;;;;;6170133;28;20257;-73
2023/08/11 08:55:28;;;;;;;3.00;2.63;;;;;;;;;;6171989;28;20227;-73
2023/08/11 08:58:29;;;;;;;3.00;2.80;;;;;;;;;;6162874;28;20200;-72
2023/08/11 09:01:30;;;;;;;3.20;2.60;;;;;;;;;;6157714;28;20203;-70
2023/08/11 09:04:32;;;;;;;3.57;2.63;;;;;;;;;;6182224;28;20319;-72
2023/08/11 09:07:33;;;;;;;2.90;2.57;;;;;;;;;;6179587;28;20193;-73
2023/08/11 09:10:36;;;;;;;2.83;2.47;;;;;;;;;;6164918;28;20202;-72
2023/08/11 09:13:38;;;;;;;4.00;2.40;;;;;;;;;;6185897;28;20198;-72
2023/08/11 09:16:39;;;;;;;2.27;2.10;;;;;;;;;;6192933;28;20250;-72
2023/08/11 09:19:43;;;;;;;2.30;2.10;;;;;;;;;;6178348;28;20538;-71
2023/08/11 09:22:44;;;;;;;5.53;2.13;;;;;;;;;;6175201;28;20192;-72
2023/08/11 09:25:46;;;;;;;2.70;2.30;;;;;;;;;;6186998;28;20247;-73
2023/08/11 09:28:47;;;;;;;2.80;2.20;;;;;;;;;;6179066;28;20292;-76
2023/08/11 09:31:49;;;;;;;2.40;2.20;;;;;;;;;;6163101;28;20747;-69
2023/08/11 09:34:50;;;;;;;2.40;2.20;;;;;;;;;;6194594;28;20189;-70
2023/08/11 09:37:54;;;;;;;2.43;2.23;;;;;;;;;;6179974;28;20263;-69
2023/08/11 09:40:59;;;;;;;2.50;2.30;;;;;;;;;;6175684;28;20212;-69
2023/08/11 09:44:00;;;;;;;2.50;2.07;;;;;;;;;;6177687;28;20312;-68
2023/08/11 09:47:02;;;;;;;2.43;2.23;;;;;;;;;;6178384;28;20191;-68
2023/08/11 09:50:03;;;;;;;2.53;2.33;;;;;;;;;;6179365;28;20184;-68
2023/08/11 09:53:05;;;;;;;2.20;2.00;;;;;;;;;;6174266;28;20201;-68
2023/08/11 09:56:06;;;;;;;2.37;2.17;;;;;;;;;;6178746;28;20284;-69
2023/08/11 09:59:11;;;;;;;3.17;1.90;;;;;;;;;;6189699;28;20208;-68
2023/08/11 10:02:15;;;;;;;2.97;2.37;;;;;;;;;;6179278;28;20215;-69
2023/08/11 10:05:17;;;;;;;3.37;2.40;;;;;;;;;;6175908;28;20237;-69
2023/08/11 10:08:19;;;;;;;2.80;1.90;;;;;;;;;;6166874;28;20201;-68
2023/08/11 10:11:20;;;;;;;5.03;3.00;;;;;;;;;;6167436;28;20197;-68
2023/08/11 10:14:22;;;;;;;3.37;2.23;;;;;;;;;;6163921;28;20201;-68
2023/08/11 10:17:24;;;;;;;3.00;2.60;;;;;;;;;;6161045;28;20316;-70
2023/08/11 10:20:26;;;;;;;2.80;2.17;;;;;;;;;;6175398;28;20251;-72
2023/08/11 10:23:27;;;;;;;2.83;2.20;;;;;;;;;;6177995;28;20192;-68
2023/08/11 10:26:31;;;;;;;3.33;2.43;;;;;;;;;;6182487;28;20208;-67
2023/08/11 10:29:32;;;;;;;2.43;2.23;;;;;;;;;;6174936;28;20193;-67
2023/08/11 10:32:33;;;;;;;2.57;2.30;;;;;;;;;;6164937;28;20220;-68
2023/08/11 10:35:36;;;;;;;5.40;2.70;;;;;;;;;;6186664;28;20189;-69
2023/08/11 10:38:37;;;;;;;2.30;2.10;;;;;;;;;;6154873;28;20664;-71
2023/08/11 10:41:44;;;;;;;2.40;2.20;;;;;;;;;;6161055;28;20194;-69
2023/08/11 10:44:45;;;;;;;2.67;2.47;;;;;;;;;;6181492;28;20216;-70
2023/08/11 10:47:53;;;;;;;3.70;2.63;;;;;;;;;;6176387;28;20284;-68
2023/08/11 10:50:54;;;;;;;2.30;2.10;;;;;;;;;;6170013;28;20197;-67
2023/08/11 10:53:56;;;;;;;2.50;2.10;;;;;;;;;;6152601;28;20262;-67
2023/08/11 10:56:59;;;;;;;3.00;2.67;;;;;;;;;;6173029;28;20197;-68
2023/08/11 11:00:00;;;;;;;3.70;2.13;;;;;;;;;;6166716;28;20217;-67
2023/08/11 11:03:01;;;;;;;2.23;2.00;;;;;;;;;;6154554;28;20307;-67
2023/08/11 11:06:04;;;;;;;3.97;2.10;;;;;;;;;;6161202;28;20244;-67
2023/08/11 11:09:06;;;;;;;2.50;2.30;;;;;;;;;;6166485;28;20266;-67
2023/08/11 11:12:07;;;;;;;2.73;2.23;;;;;;;;;;6176006;28;20191;-67
2023/08/11 11:15:08;;;;;;;2.40;2.20;;;;;;;;;;6178310;28;20200;-67
2023/08/11 11:18:09;;;;;;;3.10;2.27;;;;;;;;;;6160052;28;20212;-67
2023/08/11 11:21:14;;;;;;;2.97;2.67;;;;;;;;;;6175883;28;20235;-67
2023/08/11 11:24:16;;;;;;;2.57;2.10;;;;;;;;;;6166687;28;20280;-72
2023/08/11 11:27:18;;;;;;;2.50;2.17;;;;;;;;;;6160023;28;20218;-73
2023/08/11 11:30:20;;;;;;;2.40;2.20;;;;;;;;;;6160571;28;20200;-73
2023/08/11 11:33:22;;;;;;;2.90;2.60;;;;;;;;;;6160874;28;20251;-73
2023/08/11 11:36:24;;;;;;;3.33;2.23;;;;;;;;;;6170576;28;20199;-73
2023/08/11 11:39:25;;;;;;;4.13;2.00;;;;;;;;;;6178516;28;20220;-73
2023/08/11 11:42:29;;;;;;;3.07;2.43;;;;;;;;;;6167088;28;20219;-73
2023/08/11 11:45:30;;;;;;;3.50;2.60;;;;;;;;;;6158928;28;20247;-73
2023/08/11 11:48:31;;;;;;;3.13;2.30;;;;;;;;;;6156636;28;20203;-73
2023/08/11 11:51:33;;;;;;;2.47;2.27;;;;;;;;;;6164503;28;20226;-73
2023/08/11 11:54:34;;;;;;;3.80;2.03;;;;;;;;;;6171002;28;20296;-74
2023/08/11 11:57:35;;;;;;;2.20;2.10;;;;;;;;;;6163361;28;20200;-75
2023/08/11 12:00:36;;;;;;;2.43;2.23;;;;;;;;;;6165704;28;20268;-75
2023/08/11 12:03:37;;;;;;;2.93;2.00;;;;;;;;;;6167232;28;20189;-74
2023/08/11 12:06:38;;;;;;;2.93;2.30;;;;;;;;;;6158541;28;20323;-74
2023/08/11 12:09:50;;;;;;;2.30;1.90;;;;;;;;;;6168774;28;20205;-74
2023/08/11 12:12:58;;;;;;;3.83;2.40;;;;;;;;;;6157200;28;20200;-74
2023/08/11 12:15:59;;;;;;;2.20;2.00;;;;;;;;;;6175711;28;20185;-74
2023/08/11 12:19:01;;;;;;;2.90;2.30;;;;;;;;;;6163593;28;20215;-74
2023/08/11 12:22:03;;;;;;;2.27;2.07;;;24.40;55.10;;;;;;6171272;28;20188;-74
2023/08/11 12:25:04;;;;;;;4.90;2.33;;;27.50;52.50;;;;;;6168651;28;20272;-73
2023/08/11 12:28:05;;;;;;;3.97;2.13;;;28.00;51.20;;;;;;6153250;28;20199;-74
2023/08/11 12:31:07;;;;;;;3.57;2.07;;;;;;;;;;6159414;28;20270;-74
2023/08/11 12:34:08;;;;;;;2.30;2.10;;;;;;;;;;6175445;28;20195;-72
2023/08/11 12:37:09;;;;;;;2.60;2.37;;;;;;;;;;6159394;28;20203;-70
2023/08/11 12:40:10;;;;;;;3.10;2.07;;;;;;;;;;6157927;28;20212;-70
2023/08/11 12:43:12;;;;;;;2.80;2.00;;;28.30;48.50;;;;;;6174942;28;20287;-69
2023/08/11 12:46:12;;;;;;;2.37;2.17;;;14.20;39.60;;;;;;6154478;28;20201;-69
2023/08/11 12:49:13;;;;;;;7.20;2.10;;;30.90;43.40;;;;;;6165275;28;20228;-69
2023/08/11 12:52:14;;;;;;;2.93;2.07;;;31.30;43.70;;;;;;6166237;28;20188;-69
2023/08/11 12:55:15;;;;;;;2.40;2.20;;;31.50;42.60;;;;;;6158564;28;20224;-69
2023/08/11 12:58:15;;;;;;;2.40;2.20;;;31.60;43.20;;;;;;6158098;28;20250;-69
2023/08/11 13:01:16;;;;;;;2.27;2.07;;;;;;;;;;6158530;28;20234;-69
2023/08/11 13:04:18;;;;;;;3.13;2.00;;;;;;;;;;6162881;28;20259;-69
2023/08/11 13:07:19;;;;;;;4.90;1.90;;;;;;;;;;6160504;28;20212;-69
2023/08/11 13:10:21;;;;;;;2.17;1.97;;;;;;;;;;6158612;28;20208;-69
2023/08/11 13:13:22;;;;;;;2.27;2.07;;;;;;;;;;6166777;28;20200;-71
2023/08/11 13:16:23;;;;;;;1.80;1.70;;;;;;;;;;6156465;28;20200;-69
2023/08/11 13:19:24;;;;;;;2.17;1.80;;;;;;;;;;6158361;28;20216;-68
2023/08/11 13:22:25;;;;;;;2.00;1.50;;;;;;;;;;6182674;28;20195;-67
2023/08/11 13:25:26;;;;;;;2.43;2.00;;;;;;;;;;6160670;28;20204;-67
2023/08/11 13:28:27;;;;;;;3.17;1.70;;;;;;;;;;6171773;28;20256;-67
2023/08/11 13:31:28;;;;;;;2.30;2.07;;;;;;;;;;6176759;28;20204;-67
2023/08/11 13:34:29;;;;;;;2.63;2.00;;;;;;;;;;6155331;28;20188;-67
2023/08/11 13:37:30;;;;;;;2.33;1.73;;;30.20;42.70;;;;;;6151039;28;20239;-67
2023/08/11 13:40:31;;;;;;;3.63;1.97;;;;;;;;;;6165530;28;20215;-67
2023/08/11 13:43:34;;;;;;;2.20;2.00;;;;;;;;;;6161121;28;20195;-65
2023/08/11 13:46:35;;;;;;;1.67;1.57;;;;;;;;;;6170490;28;20238;-65
2023/08/11 13:49:37;;;;;;;2.10;1.90;;;;;;;;;;6172931;28;20215;-65
2023/08/11 13:52:38;;;;;;;1.80;1.70;;;;;;;;;;6163825;28;20196;-65
2023/08/11 13:55:39;;;;;;;2.17;1.60;;;;;;;;;;6162349;28;20196;-65
2023/08/11 13:58:40;;;;;;;2.17;1.97;;;;;;;;;;6172848;28;20207;-64
2023/08/11 14:01:41;;;;;;;1.87;1.67;;;;;;;;;;6166499;28;20192;-64
2023/08/11 14:04:42;;;;;;;1.97;1.77;;;;;;;;;;6194140;28;20235;-65
2023/08/11 14:07:48;;;;;;;2.67;1.67;;;;;;;;;;6159874;28;20201;-65
2023/08/11 14:10:49;;;;;;;1.73;1.57;;;;;;;;;;6178480;28;20185;-65
2023/08/11 14:13:50;;;;;;;3.27;1.77;;;;;;;;;;6170720;28;20192;-67
2023/08/11 14:16:51;;;;;;;1.70;1.43;;;;;;;;;;6187472;28;20188;-64
2023/08/11 14:19:52;;;;;;;1.90;1.80;;;;;;;;;;6177023;28;20247;-65
2023/08/11 14:22:53;;;;;;;1.60;1.50;;;;;;;;;;6171501;28;20196;-65
2023/08/11 14:25:54;;;;;;;1.50;1.40;;;;;;;;;;6157254;28;20193;-65
2023/08/11 14:28:55;;;;;;;4.03;1.60;;;;;;;;;;6169393;28;20195;-65
2023/08/11 14:31:56;;;;;;;3.77;1.70;;;;;;;;;;6169884;28;20258;-65
2023/08/11 14:34:57;;;;;;;3.77;2.30;;;;;;;;;;6162795;28;20199;-65
2023/08/11 14:37:58;;;;;;;2.20;1.87;;;;;;;;;;6161456;28;20188;-65
2023/08/11 14:41:01;;;;;;;3.67;2.07;;;;;;;;;;6180472;28;20212;-65
2023/08/11 14:44:02;;;;;;;2.43;1.90;;;;;;;;;;6177530;28;20189;-65
2023/08/11 14:47:05;;;;;;;2.07;1.50;;;;;;;;;;6180644;28;20199;-65
2023/08/11 14:50:06;;;;;;;2.00;1.80;;;;;;;;;;6160745;28;20204;-64
2023/08/11 14:53:07;;;;;;;2.70;1.80;;;;;;;;;;6159013;28;20220;-65
2023/08/11 14:56:08;;;;;;;3.57;1.87;;;;;;;;;;6168966;28;20200;-65
2023/08/11 14:59:09;;;;;;;2.90;1.73;;;;;;;;;;6173271;28;20220;-65
2023/08/11 15:02:10;;;;;;;1.90;1.80;;;;;;;;;;6154199;28;20196;-65
2023/08/11 15:05:11;;;;;;;3.00;1.90;;;;;;;;;;6187006;28;20307;-65
2023/08/11 15:08:12;;;;;;;2.50;1.70;;;;;;;;;;6161342;28;20192;-65
2023/08/11 15:11:13;;;;;;;2.23;1.90;;;;;;;;;;6160186;28;20203;-65
2023/08/11 15:14:14;;;;;;;3.33;2.10;;;;;;;;;;6164455;28;20227;-67
2023/08/11 15:17:16;;;;;;;2.13;1.80;;;;;;;;;;6153777;28;20193;-66
2023/08/11 15:20:17;;;;;;;2.30;1.60;;;;;;;;;;6159848;28;20227;-66
2023/08/11 15:23:18;;;;;;;2.07;1.90;;;;;;;;;;6170313;28;20284;-66
2023/08/11 15:26:21;;;;;;;1.90;1.70;;;;;;;;;;6173097;28;20204;-66
2023/08/11 15:29:22;;;;;;;3.80;1.53;;;;;;;;;;6163075;28;20216;-65
2023/08/11 15:32:23;;;;;;;1.73;1.60;;;;;;;;;;6159983;28;20240;-63
2023/08/11 15:35:24;;;;;;;1.80;1.70;;;;;;;;;;6156868;28;20219;-64
2023/08/11 15:38:25;;;;;;;2.13;1.90;;;;;;;;;;6183441;28;20193;-64
2023/08/11 15:41:26;;;;;;;1.80;1.70;;;;;;;;;;6164355;28;20287;-64
2023/08/11 15:44:27;;;;;;;2.00;1.80;;;;;;;;;;6174193;28;20271;-64
2023/08/11 15:47:29;;;;;;;1.80;1.70;;;;;;;;;;6176019;28;20192;-65
2023/08/11 15:50:30;;;;;;;1.77;1.67;;;;;;;;;;6172389;28;20195;-65
2023/08/11 15:53:31;;;;;;;2.27;1.60;;;;;;;;;;6159639;28;20208;-65
2023/08/11 15:56:32;;;;;;;2.00;1.80;;;;;;;;;;6153908;28;20197;-65
2023/08/11 15:59:33;;;;;;;2.30;1.87;;;;;;;;;;6168224;28;20212;-65
2023/08/11 16:02:34;;;;;;;2.77;1.67;;;;;;;;;;6160224;28;20199;-65
2023/08/11 16:05:35;;;;;;;2.17;1.97;;;;;;;;;;6165287;28;20255;-69
2023/08/11 16:08:37;;;;;;;2.73;2.00;;;;;;;;;;6159777;28;20200;-67
2023/08/11 16:11:43;;;;;;;3.83;1.83;;;;;;;;;;6182432;28;20215;-65
2023/08/11 16:14:44;;;;;;;2.07;1.70;;;;;;;;;;6173963;28;20201;-64
2023/08/11 16:17:45;;;;;;;2.23;1.80;;;;;;;;;;6171558;28;20193;-64
2023/08/11 16:20:46;;;;;;;2.03;1.70;;;;;;;;;;6158681;28;20212;-64
2023/08/11 16:23:47;;;;;;;2.50;1.97;;;;;;;;;;6167628;28;20196;-65
2023/08/11 16:26:48;;;;;;;2.00;1.80;;;;;;;;;;6160428;28;20203;-63
2023/08/11 16:29:50;;;;;;;2.27;2.00;;;;;;;;;;6155705;28;20247;-65
2023/08/11 16:32:51;;;;;;;4.17;2.10;;;;;;;;;;6166097;28;20280;-66
2023/08/11 16:35:52;;;;;;;1.77;1.60;;;;;;;;;;6166421;28;20200;-64
2023/08/11 16:38:53;;;;;;;1.93;1.50;;;;;;;;;;6154416;28;20224;-64
2023/08/11 16:41:54;;;;;;;2.27;2.07;;;;;;;;;;6164169;28;20194;-64
2023/08/11 16:44:55;;;;;;;2.33;2.13;;;;;;;;;;6169601;28;20204;-64
2023/08/11 16:47:56;;;;;;;2.23;2.03;;;;;;;;;;6158495;28;20192;-64
2023/08/11 16:50:57;;;;;;;3.10;1.80;;;;;;;;;;6161861;28;20196;-64
2023/08/11 16:53:58;;;;;;;2.97;2.00;;;;;;;;;;6159066;28;20207;-64
2023/08/11 16:56:59;;;;;;;2.47;2.17;;;;;;;;;;6155947;28;20201;-64
2023/08/11 17:00:00;;;;;;;2.40;2.20;;;;;;;;;;6158600;28;20220;-64
2023/08/11 17:03:01;;;;;;;2.17;1.87;;;;;;;;;;6163058;28;20223;-64
2023/08/11 17:06:02;;;;;;;2.27;1.90;;;;;;;;;;6158096;28;20233;-64
2023/08/11 17:09:04;;;;;;;1.93;1.70;;;;;;;;;;6168122;28;20196;-64
2023/08/11 17:12:05;;;;;;;2.03;1.93;;;;;;;;;;6158952;28;20200;-64
2023/08/11 17:15:07;;;;;;;2.07;1.87;;;;;;;;;;6174176;28;20256;-64
2023/08/11 17:18:08;;;;;;;3.20;1.73;;;;;;;;;;6167558;28;20231;-65
2023/08/11 17:21:10;;;;;;;2.33;1.80;;;25.00;52.70;;;;;;6155179;28;20233;-63
2023/08/11 17:24:10;;;;;;;2.70;2.00;;;24.00;50.00;;;;;;6172778;28;20219;-64
2023/08/11 17:27:11;;;;;;;2.03;1.80;;;24.70;52.80;;;;;;6151100;28;20208;-65
2023/08/11 17:30:13;;;;;;;1.90;1.80;;;24.50;53.40;;;;;;6142685;28;20252;-62
2023/08/11 17:33:13;;;;;;;2.40;2.20;;;24.40;53.90;;;;;;6172382;28;20200;-63
2023/08/11 17:36:15;;;;;;;2.30;2.03;;;;;;;;;;6162947;28;20220;-61
2023/08/11 17:39:16;;;;;;;2.40;2.20;;;;;;;;;;6175357;28;20250;-60
2023/08/11 17:42:17;;;;;;;3.60;1.80;;;;;;;;;;6172265;28;20270;-61
2023/08/11 17:45:18;;;;;;;2.03;1.83;;;;;;;;;;6186983;28;20193;-63
2023/08/11 17:48:19;;;;;;;2.17;1.90;;;;;;;;;;6167306;28;20216;-60
2023/08/11 17:51:22;;;;;;;2.63;1.53;;;;;;;;;;6177989;28;20196;-60
2023/08/11 17:54:23;;;;;;;2.60;1.90;;;;;;;;;;6163023;28;20192;-62
2023/08/11 17:57:24;;;;;;;2.03;1.83;;;;;;;;;;6164298;28;20201;-62
2023/08/11 18:00:25;;;;;;;2.53;2.30;;;;;;;;;;6175534;28;20283;-60
2023/08/11 18:03:27;;;;;;;2.00;1.70;;;;;;;;;;6162950;28;20195;-60
2023/08/11 18:06:28;;;;;;;3.43;2.27;;;;;;;;;;6162543;28;20244;-60